sensor_id;sensor_type;location;lat;lon;timestamp;temperature;humidity
19007;DHT22;9636;47.382;8.480;2023-04-24T00:01:00;18.30;99.90
19007;DHT22;9636;47.382;8.480;2023-04-24T00:03:27;18.20;99.90
19007;DHT22;9636;47.382;8.480;2023-04-24T00:05:54;18.20;99.90
19007;DHT22;9636;47.382;8.480;2023-04-24T00:08:22;18.20;99.90
19007;DHT22;9636;47.382;8.480;2023-04-24T00:10:49;18.20;99.90
19007;DHT22;9636;47.382;8.480;2023-04-24T00:13:18;18.20;99.90
19007;DHT22;9636;47.382;8.480;2023-04-24T00:15:44;18.10;99.90
19007;DHT22;9636;47.382;8.480;2023-04-24T00:18:11;18.10;99.90
19007;DHT22;9636;47.382;8.480;2023-04-24T00:20:38;18.10;99.90
19007;DHT22;9636;47.382;8.480;2023-04-24T00:23:05;18.10;99.90
19007;DHT22;9636;47.382;8.480;2023-04-24T00:25:33;18.10;99.90
19007;DHT22;9636;47.382;8.480;2023-04-24T00:28:00;18.10;99.90
19007;DHT22;9636;47.382;8.480;2023-04-24T00:30:26;18.10;99.90
19007;DHT22;9636;47.382;8.480;2023-04-24T00:32:53;18.00;99.90
19007;DHT22;9636;47.382;8.480;2023-04-24T00:35:20;18.00;99.90
19007;DHT22;9636;47.382;8.480;2023-04-24T00:37:47;18.00;99.90
19007;DHT22;9636;47.382;8.480;2023-04-24T00:40:14;17.90;99.90
19007;DHT22;9636;47.382;8.480;2023-04-24T00:42:43;17.90;99.90
19007;DHT22;9636;47.382;8.480;2023-04-24T00:45:10;17.90;99.90
19007;DHT22;9636;47.382;8.480;2023-04-24T00:47:38;17.90;99.90
19007;DHT22;9636;47.382;8.480;2023-04-24T00:50:07;17.90;99.90
19007;DHT22;9636;47.382;8.480;2023-04-24T00:52:34;17.90;99.90
19007;DHT22;9636;47.382;8.480;2023-04-24T00:55:01;17.90;99.90
19007;DHT22;9636;47.382;8.480;2023-04-24T00:57:28;17.80;99.90
19007;DHT22;9636;47.382;8.480;2023-04-24T00:59:57;17.80;99.90
19007;DHT22;9636;47.382;8.480;2023-04-24T01:02:24;17.80;99.90
19007;DHT22;9636;47.382;8.480;2023-04-24T01:04:52;17.80;99.90
19007;DHT22;9636;47.382;8.480;2023-04-24T01:07:20;17.80;99.90
19007;DHT22;9636;47.382;8.480;2023-04-24T01:09:48;17.70;99.90
19007;DHT22;9636;47.382;8.480;2023-04-24T01:12:17;17.70;99.90
19007;DHT22;9636;47.382;8.480;2023-04-24T01:14:44;17.70;99.90
19007;DHT22;9636;47.382;8.480;2023-04-24T01:17:12;17.70;99.90
19007;DHT22;9636;47.382;8.480;2023-04-24T01:19:39;17.60;99.90
19007;DHT22;9636;47.382;8.480;2023-04-24T01:22:12;17.70;99.90
19007;DHT22;9636;47.382;8.480;2023-04-24T01:24:39;17.60;99.90
19007;DHT22;9636;47.382;8.480;2023-04-24T01:27:06;17.60;99.90
19007;DHT22;9636;47.382;8.480;2023-04-24T01:29:34;17.60;99.90
19007;DHT22;9636;47.382;8.480;2023-04-24T01:32:02;17.60;99.90
19007;DHT22;9636;47.382;8.480;2023-04-24T01:34:30;17.60;99.90
19007;DHT22;9636;47.382;8.480;2023-04-24T01:36:56;17.60;99.90
19007;DHT22;9636;47.382;8.480;2023-04-24T01:39:25;17.50;99.90
19007;DHT22;9636;47.382;8.480;2023-04-24T01:41:54;17.50;99.90
19007;DHT22;9636;47.382;8.480;2023-04-24T01:44:21;17.50;99.90
19007;DHT22;9636;47.382;8.480;2023-04-24T01:46:48;17.50;99.90
19007;DHT22;9636;47.382;8.480;2023-04-24T01:49:15;17.50;99.90
19007;DHT22;9636;47.382;8.480;2023-04-24T01:51:42;17.50;99.90
19007;DHT22;9636;47.382;8.480;2023-04-24T01:54:08;17.40;99.90
19007;DHT22;9636;47.382;8.480;2023-04-24T01:56:40;17.40;99.90
19007;DHT22;9636;47.382;8.480;2023-04-24T01:59:09;17.40;99.90
19007;DHT22;9636;47.382;8.480;2023-04-24T02:01:37;17.40;99.90
19007;DHT22;9636;47.382;8.480;2023-04-24T02:04:04;17.40;99.90
19007;DHT22;9636;47.382;8.480;2023-04-24T02:06:31;17.40;99.90
19007;DHT22;9636;47.382;8.480;2023-04-24T02:08:58;17.30;99.90
19007;DHT22;9636;47.382;8.480;2023-04-24T02:11:25;17.30;99.90
19007;DHT22;9636;47.382;8.480;2023-04-24T02:13:53;17.30;99.90
19007;DHT22;9636;47.382;8.480;2023-04-24T02:16:20;17.30;99.90
19007;DHT22;9636;47.382;8.480;2023-04-24T02:18:47;17.30;99.90
19007;DHT22;9636;47.382;8.480;2023-04-24T02:21:14;17.30;99.90
19007;DHT22;9636;47.382;8.480;2023-04-24T02:23:40;17.20;99.90
19007;DHT22;9636;47.382;8.480;2023-04-24T02:26:07;17.20;99.90
19007;DHT22;9636;47.382;8.480;2023-04-24T02:28:34;17.20;99.90
19007;DHT22;9636;47.382;8.480;2023-04-24T02:31:02;17.20;99.90
19007;DHT22;9636;47.382;8.480;2023-04-24T02:33:29;17.20;99.90
19007;DHT22;9636;47.382;8.480;2023-04-24T02:35:56;17.20;99.90
19007;DHT22;9636;47.382;8.480;2023-04-24T02:38:22;17.10;99.90
19007;DHT22;9636;47.382;8.480;2023-04-24T02:40:49;17.10;99.90
19007;DHT22;9636;47.382;8.480;2023-04-24T02:43:16;17.10;99.90
19007;DHT22;9636;47.382;8.480;2023-04-24T02:45:43;17.10;99.90
19007;DHT22;9636;47.382;8.480;2023-04-24T02:48:11;17.10;99.90
19007;DHT22;9636;47.382;8.480;2023-04-24T02:50:38;17.10;99.90
19007;DHT22;9636;47.382;8.480;2023-04-24T02:53:05;17.00;99.90
19007;DHT22;9636;47.382;8.480;2023-04-24T02:55:32;17.00;99.90
19007;DHT22;9636;47.382;8.480;2023-04-24T02:57:58;17.00;99.90
19007;DHT22;9636;47.382;8.480;2023-04-24T03:00:25;17.00;99.90
19007;DHT22;9636;47.382;8.480;2023-04-24T03:02:52;17.00;99.90
19007;DHT22;9636;47.382;8.480;2023-04-24T03:05:20;17.00;99.90
19007;DHT22;9636;47.382;8.480;2023-04-24T03:07:47;16.90;99.90
19007;DHT22;9636;47.382;8.480;2023-04-24T03:10:14;16.90;99.90
19007;DHT22;9636;47.382;8.480;2023-04-24T03:12:40;16.90;99.90
19007;DHT22;9636;47.382;8.480;2023-04-24T03:15:08;16.90;99.90
19007;DHT22;9636;47.382;8.480;2023-04-24T03:17:35;16.90;99.90
19007;DHT22;9636;47.382;8.480;2023-04-24T03:20:02;16.90;99.90
19007;DHT22;9636;47.382;8.480;2023-04-24T03:22:32;16.90;99.90
19007;DHT22;9636;47.382;8.480;2023-04-24T03:24:59;16.80;99.90
19007;DHT22;9636;47.382;8.480;2023-04-24T03:27:26;16.80;99.90
19007;DHT22;9636;47.382;8.480;2023-04-24T03:29:53;16.80;99.90
19007;DHT22;9636;47.382;8.480;2023-04-24T03:32:21;16.80;99.90
19007;DHT22;9636;47.382;8.480;2023-04-24T03:34:48;16.80;99.90
19007;DHT22;9636;47.382;8.480;2023-04-24T03:37:15;16.80;99.90
19007;DHT22;9636;47.382;8.480;2023-04-24T03:39:43;16.80;99.90
19007;DHT22;9636;47.382;8.480;2023-04-24T03:42:10;16.80;99.90
19007;DHT22;9636;47.382;8.480;2023-04-24T03:44:37;16.70;99.90
19007;DHT22;9636;47.382;8.480;2023-04-24T03:47:03;16.70;99.90
19007;DHT22;9636;47.382;8.480;2023-04-24T03:49:30;16.70;99.90
19007;DHT22;9636;47.382;8.480;2023-04-24T03:51:57;16.70;99.90
19007;DHT22;9636;47.382;8.480;2023-04-24T03:54:24;16.70;99.90
19007;DHT22;9636;47.382;8.480;2023-04-24T03:56:52;16.70;99.90
19007;DHT22;9636;47.382;8.480;2023-04-24T03:59:19;16.70;99.90
19007;DHT22;9636;47.382;8.480;2023-04-24T04:01:45;16.60;99.90
19007;DHT22;9636;47.382;8.480;2023-04-24T04:04:12;16.60;99.90
19007;DHT22;9636;47.382;8.480;2023-04-24T04:06:39;16.60;99.90
19007;DHT22;9636;47.382;8.480;2023-04-24T04:09:06;16.60;99.90
19007;DHT22;9636;47.382;8.480;2023-04-24T04:11:34;16.60;99.90
19007;DHT22;9636;47.382;8.480;2023-04-24T04:14:02;16.60;99.90
19007;DHT22;9636;47.382;8.480;2023-04-24T04:16:29;16.50;99.90
19007;DHT22;9636;47.382;8.480;2023-04-24T04:18:56;16.50;99.90
19007;DHT22;9636;47.382;8.480;2023-04-24T04:21:23;16.50;99.90
19007;DHT22;9636;47.382;8.480;2023-04-24T04:23:50;16.50;99.90
19007;DHT22;9636;47.382;8.480;2023-04-24T04:26:16;16.50;99.90
19007;DHT22;9636;47.382;8.480;2023-04-24T04:28:44;16.50;99.90
19007;DHT22;9636;47.382;8.480;2023-04-24T04:31:14;16.50;99.90
19007;DHT22;9636;47.382;8.480;2023-04-24T04:33:41;16.50;99.90
19007;DHT22;9636;47.382;8.480;2023-04-24T04:36:09;16.50;99.90
19007;DHT22;9636;47.382;8.480;2023-04-24T04:38:35;16.40;99.90
19007;DHT22;9636;47.382;8.480;2023-04-24T04:41:03;16.40;99.90
19007;DHT22;9636;47.382;8.480;2023-04-24T04:43:31;16.40;99.90
19007;DHT22;9636;47.382;8.480;2023-04-24T04:45:58;16.40;99.90
19007;DHT22;9636;47.382;8.480;2023-04-24T04:48:27;16.40;99.90
19007;DHT22;9636;47.382;8.480;2023-04-24T04:50:54;16.40;99.90
19007;DHT22;9636;47.382;8.480;2023-04-24T04:53:21;16.40;99.90
19007;DHT22;9636;47.382;8.480;2023-04-24T04:55:48;16.40;99.90
19007;DHT22;9636;47.382;8.480;2023-04-24T04:58:15;16.30;99.90
19007;DHT22;9636;47.382;8.480;2023-04-24T05:00:41;16.30;99.90
19007;DHT22;9636;47.382;8.480;2023-04-24T05:03:08;16.30;99.90
19007;DHT22;9636;47.382;8.480;2023-04-24T05:05:36;16.30;99.90
19007;DHT22;9636;47.382;8.480;2023-04-24T05:08:06;16.30;99.90
19007;DHT22;9636;47.382;8.480;2023-04-24T05:10:33;16.30;99.90
19007;DHT22;9636;47.382;8.480;2023-04-24T05:13:02;16.30;99.90
19007;DHT22;9636;47.382;8.480;2023-04-24T05:15:29;16.30;99.90
19007;DHT22;9636;47.382;8.480;2023-04-24T05:17:57;16.30;99.90
19007;DHT22;9636;47.382;8.480;2023-04-24T05:20:24;16.30;99.90
19007;DHT22;9636;47.382;8.480;2023-04-24T05:22:52;16.30;99.90
19007;DHT22;9636;47.382;8.480;2023-04-24T05:25:19;16.30;99.90
19007;DHT22;9636;47.382;8.480;2023-04-24T05:27:46;16.20;99.90
19007;DHT22;9636;47.382;8.480;2023-04-24T05:30:13;16.20;99.90
19007;DHT22;9636;47.382;8.480;2023-04-24T05:32:40;16.20;99.90
19007;DHT22;9636;47.382;8.480;2023-04-24T05:35:08;16.20;99.90
19007;DHT22;9636;47.382;8.480;2023-04-24T05:37:34;16.20;99.90
19007;DHT22;9636;47.382;8.480;2023-04-24T05:40:03;16.20;99.90
19007;DHT22;9636;47.382;8.480;2023-04-24T05:42:31;16.30;99.90
19007;DHT22;9636;47.382;8.480;2023-04-24T05:44:57;16.20;99.90
19007;DHT22;9636;47.382;8.480;2023-04-24T05:47:24;16.20;99.90
19007;DHT22;9636;47.382;8.480;2023-04-24T05:49:52;16.20;99.90
19007;DHT22;9636;47.382;8.480;2023-04-24T05:52:18;16.30;99.90
19007;DHT22;9636;47.382;8.480;2023-04-24T05:54:45;16.30;99.90
19007;DHT22;9636;47.382;8.480;2023-04-24T05:57:13;16.30;99.90
19007;DHT22;9636;47.382;8.480;2023-04-24T05:59:40;16.40;99.90
19007;DHT22;9636;47.382;8.480;2023-04-24T06:02:07;16.40;99.90
19007;DHT22;9636;47.382;8.480;2023-04-24T06:04:34;16.40;99.90
19007;DHT22;9636;47.382;8.480;2023-04-24T06:07:01;16.40;99.90
19007;DHT22;9636;47.382;8.480;2023-04-24T06:09:28;16.40;99.90
19007;DHT22;9636;47.382;8.480;2023-04-24T06:11:55;16.40;99.90
19007;DHT22;9636;47.382;8.480;2023-04-24T06:14:23;16.50;99.90
19007;DHT22;9636;47.382;8.480;2023-04-24T06:16:50;16.50;99.90
19007;DHT22;9636;47.382;8.480;2023-04-24T06:19:17;16.60;99.90
19007;DHT22;9636;47.382;8.480;2023-04-24T06:21:44;16.60;99.90
19007;DHT22;9636;47.382;8.480;2023-04-24T06:24:13;16.60;99.90
19007;DHT22;9636;47.382;8.480;2023-04-24T06:26:41;16.70;99.90
19007;DHT22;9636;47.382;8.480;2023-04-24T06:29:08;16.70;99.90
19007;DHT22;9636;47.382;8.480;2023-04-24T06:31:36;16.80;99.90
19007;DHT22;9636;47.382;8.480;2023-04-24T06:34:03;16.80;99.90
19007;DHT22;9636;47.382;8.480;2023-04-24T06:36:30;16.90;99.90
19007;DHT22;9636;47.382;8.480;2023-04-24T06:38:58;17.10;99.90
19007;DHT22;9636;47.382;8.480;2023-04-24T06:41:24;17.30;99.90
19007;DHT22;9636;47.382;8.480;2023-04-24T06:43:51;17.40;99.90
19007;DHT22;9636;47.382;8.480;2023-04-24T06:46:18;17.60;99.90
19007;DHT22;9636;47.382;8.480;2023-04-24T06:48:49;17.80;99.90
19007;DHT22;9636;47.382;8.480;2023-04-24T06:51:16;17.90;99.90
19007;DHT22;9636;47.382;8.480;2023-04-24T06:53:44;18.00;99.90
19007;DHT22;9636;47.382;8.480;2023-04-24T06:56:10;17.90;99.90
19007;DHT22;9636;47.382;8.480;2023-04-24T06:58:37;18.00;99.90
19007;DHT22;9636;47.382;8.480;2023-04-24T07:01:04;18.00;99.90
19007;DHT22;9636;47.382;8.480;2023-04-24T07:03:31;18.10;99.90
19007;DHT22;9636;47.382;8.480;2023-04-24T07:05:59;18.20;99.90
19007;DHT22;9636;47.382;8.480;2023-04-24T07:08:26;18.40;99.90
19007;DHT22;9636;47.382;8.480;2023-04-24T07:10:53;18.70;99.90
19007;DHT22;9636;47.382;8.480;2023-04-24T07:13:21;18.80;99.90
19007;DHT22;9636;47.382;8.480;2023-04-24T07:15:48;18.90;99.90
19007;DHT22;9636;47.382;8.480;2023-04-24T07:18:16;19.00;99.90
19007;DHT22;9636;47.382;8.480;2023-04-24T07:20:43;19.00;99.90
19007;DHT22;9636;47.382;8.480;2023-04-24T07:23:11;19.00;99.90
19007;DHT22;9636;47.382;8.480;2023-04-24T07:25:38;19.10;99.90
19007;DHT22;9636;47.382;8.480;2023-04-24T07:28:06;19.30;99.90
19007;DHT22;9636;47.382;8.480;2023-04-24T07:30:33;19.60;99.90
19007;DHT22;9636;47.382;8.480;2023-04-24T07:33:00;20.10;99.90
19007;DHT22;9636;47.382;8.480;2023-04-24T07:35:27;20.60;99.90
19007;DHT22;9636;47.382;8.480;2023-04-24T07:37:54;20.50;99.90
19007;DHT22;9636;47.382;8.480;2023-04-24T07:40:22;20.20;99.90
19007;DHT22;9636;47.382;8.480;2023-04-24T07:42:49;19.90;99.90
19007;DHT22;9636;47.382;8.480;2023-04-24T07:45:16;19.90;99.90
19007;DHT22;9636;47.382;8.480;2023-04-24T07:47:43;19.90;99.90
19007;DHT22;9636;47.382;8.480;2023-04-24T07:50:11;20.00;99.90
19007;DHT22;9636;47.382;8.480;2023-04-24T07:52:39;20.20;99.90
19007;DHT22;9636;47.382;8.480;2023-04-24T07:55:06;20.30;99.90
19007;DHT22;9636;47.382;8.480;2023-04-24T07:57:35;20.40;99.90
19007;DHT22;9636;47.382;8.480;2023-04-24T08:00:03;20.40;99.90
19007;DHT22;9636;47.382;8.480;2023-04-24T08:02:31;20.30;99.90
19007;DHT22;9636;47.382;8.480;2023-04-24T08:04:58;20.20;99.90
19007;DHT22;9636;47.382;8.480;2023-04-24T08:07:24;20.10;99.90
19007;DHT22;9636;47.382;8.480;2023-04-24T08:09:51;20.10;99.90
19007;DHT22;9636;47.382;8.480;2023-04-24T08:12:18;20.10;99.90
19007;DHT22;9636;47.382;8.480;2023-04-24T08:14:46;20.10;99.90
19007;DHT22;9636;47.382;8.480;2023-04-24T08:17:13;20.10;99.90
19007;DHT22;9636;47.382;8.480;2023-04-24T08:19:40;20.10;99.90
19007;DHT22;9636;47.382;8.480;2023-04-24T08:22:12;20.10;99.90
19007;DHT22;9636;47.382;8.480;2023-04-24T08:24:39;20.10;99.90
19007;DHT22;9636;47.382;8.480;2023-04-24T08:27:06;20.20;99.90
19007;DHT22;9636;47.382;8.480;2023-04-24T08:29:33;20.10;99.90
19007;DHT22;9636;47.382;8.480;2023-04-24T08:32:01;20.20;99.90
19007;DHT22;9636;47.382;8.480;2023-04-24T08:34:28;20.30;99.90
19007;DHT22;9636;47.382;8.480;2023-04-24T08:36:55;20.30;99.90
19007;DHT22;9636;47.382;8.480;2023-04-24T08:39:22;20.40;99.90
19007;DHT22;9636;47.382;8.480;2023-04-24T08:41:49;20.40;99.90
19007;DHT22;9636;47.382;8.480;2023-04-24T08:44:17;20.40;99.90
19007;DHT22;9636;47.382;8.480;2023-04-24T08:46:47;20.50;99.90
19007;DHT22;9636;47.382;8.480;2023-04-24T08:49:16;21.80;99.90
19007;DHT22;9636;47.382;8.480;2023-04-24T08:51:44;22.10;99.90
19007;DHT22;9636;47.382;8.480;2023-04-24T08:54:33;21.60;99.90
19007;DHT22;9636;47.382;8.480;2023-04-24T08:57:02;21.50;99.90
19007;DHT22;9636;47.382;8.480;2023-04-24T08:59:29;21.40;99.90
19007;DHT22;9636;47.382;8.480;2023-04-24T09:01:57;21.20;99.90
19007;DHT22;9636;47.382;8.480;2023-04-24T09:04:25;21.20;99.90
19007;DHT22;9636;47.382;8.480;2023-04-24T09:06:52;21.10;99.90
19007;DHT22;9636;47.382;8.480;2023-04-24T09:09:22;21.20;99.90
19007;DHT22;9636;47.382;8.480;2023-04-24T09:11:50;21.20;99.90
19007;DHT22;9636;47.382;8.480;2023-04-24T09:14:19;21.30;99.90
19007;DHT22;9636;47.382;8.480;2023-04-24T09:16:46;21.30;99.90
19007;DHT22;9636;47.382;8.480;2023-04-24T09:19:13;21.40;99.90
19007;DHT22;9636;47.382;8.480;2023-04-24T09:21:45;21.40;99.90
19007;DHT22;9636;47.382;8.480;2023-04-24T09:24:15;21.40;99.90
19007;DHT22;9636;47.382;8.480;2023-04-24T09:26:43;21.40;99.90
19007;DHT22;9636;47.382;8.480;2023-04-24T09:29:15;21.40;99.90
19007;DHT22;9636;47.382;8.480;2023-04-24T09:31:42;21.40;99.90
19007;DHT22;9636;47.382;8.480;2023-04-24T09:34:09;21.30;99.90
19007;DHT22;9636;47.382;8.480;2023-04-24T09:36:38;21.30;99.90
19007;DHT22;9636;47.382;8.480;2023-04-24T09:39:07;21.30;99.90
19007;DHT22;9636;47.382;8.480;2023-04-24T09:41:43;21.40;99.90
19007;DHT22;9636;47.382;8.480;2023-04-24T09:44:12;21.50;99.90
19007;DHT22;9636;47.382;8.480;2023-04-24T09:46:41;21.80;99.90
19007;DHT22;9636;47.382;8.480;2023-04-24T09:49:09;22.80;99.90
19007;DHT22;9636;47.382;8.480;2023-04-24T09:51:37;23.70;99.90
19007;DHT22;9636;47.382;8.480;2023-04-24T09:54:14;23.40;99.90
19007;DHT22;9636;47.382;8.480;2023-04-24T09:56:43;23.00;99.90
19007;DHT22;9636;47.382;8.480;2023-04-24T09:59:11;22.70;99.90
19007;DHT22;9636;47.382;8.480;2023-04-24T10:01:37;22.70;99.90
19007;DHT22;9636;47.382;8.480;2023-04-24T10:04:15;22.60;99.90
19007;DHT22;9636;47.382;8.480;2023-04-24T10:06:42;22.60;99.90
19007;DHT22;9636;47.382;8.480;2023-04-24T10:09:11;22.60;99.90
19007;DHT22;9636;47.382;8.480;2023-04-24T10:11:41;22.50;99.90
19007;DHT22;9636;47.382;8.480;2023-04-24T10:14:09;22.50;99.90
19007;DHT22;9636;47.382;8.480;2023-04-24T10:16:37;22.60;99.90
19007;DHT22;9636;47.382;8.480;2023-04-24T10:19:06;22.60;99.90
19007;DHT22;9636;47.382;8.480;2023-04-24T10:21:33;22.70;99.90
19007;DHT22;9636;47.382;8.480;2023-04-24T10:24:01;22.80;99.90
19007;DHT22;9636;47.382;8.480;2023-04-24T10:26:30;22.80;99.90
19007;DHT22;9636;47.382;8.480;2023-04-24T10:28:58;22.90;99.90
19007;DHT22;9636;47.382;8.480;2023-04-24T10:31:26;23.00;99.90
19007;DHT22;9636;47.382;8.480;2023-04-24T10:33:54;23.00;99.90
19007;DHT22;9636;47.382;8.480;2023-04-24T10:36:22;23.10;99.90
19007;DHT22;9636;47.382;8.480;2023-04-24T10:38:53;23.10;99.90
19007;DHT22;9636;47.382;8.480;2023-04-24T10:41:21;23.20;99.90
19007;DHT22;9636;47.382;8.480;2023-04-24T10:44:04;23.30;99.90
19007;DHT22;9636;47.382;8.480;2023-04-24T10:46:31;23.40;99.90
19007;DHT22;9636;47.382;8.480;2023-04-24T10:49:52;23.50;99.90
19007;DHT22;9636;47.382;8.480;2023-04-24T10:52:19;23.60;99.90
19007;DHT22;9636;47.382;8.480;2023-04-24T10:54:47;23.60;99.90
19007;DHT22;9636;47.382;8.480;2023-04-24T10:57:28;23.80;99.90
19007;DHT22;9636;47.382;8.480;2023-04-24T11:00:14;23.80;99.90
19007;DHT22;9636;47.382;8.480;2023-04-24T11:02:42;23.80;99.90
19007;DHT22;9636;47.382;8.480;2023-04-24T11:05:15;23.80;99.90
19007;DHT22;9636;47.382;8.480;2023-04-24T11:08:10;23.80;99.90
19007;DHT22;9636;47.382;8.480;2023-04-24T11:10:43;23.70;99.90
19007;DHT22;9636;47.382;8.480;2023-04-24T11:13:10;23.70;99.90
19007;DHT22;9636;47.382;8.480;2023-04-24T11:15:41;23.70;99.90
19007;DHT22;9636;47.382;8.480;2023-04-24T11:18:13;23.80;99.90
19007;DHT22;9636;47.382;8.480;2023-04-24T11:20:42;23.80;99.90
19007;DHT22;9636;47.382;8.480;2023-04-24T11:23:12;23.80;99.90
19007;DHT22;9636;47.382;8.480;2023-04-24T11:25:39;23.90;99.90
19007;DHT22;9636;47.382;8.480;2023-04-24T11:28:06;23.90;99.90
19007;DHT22;9636;47.382;8.480;2023-04-24T11:30:33;23.90;99.90
19007;DHT22;9636;47.382;8.480;2023-04-24T11:33:05;23.90;99.90
19007;DHT22;9636;47.382;8.480;2023-04-24T11:35:35;23.90;99.90
19007;DHT22;9636;47.382;8.480;2023-04-24T11:38:04;23.90;99.90
19007;DHT22;9636;47.382;8.480;2023-04-24T11:40:31;23.90;99.90
19007;DHT22;9636;47.382;8.480;2023-04-24T11:42:59;23.90;99.90
19007;DHT22;9636;47.382;8.480;2023-04-24T11:45:29;23.90;99.90
19007;DHT22;9636;47.382;8.480;2023-04-24T11:47:56;24.00;99.90
19007;DHT22;9636;47.382;8.480;2023-04-24T11:50:26;23.90;99.90
19007;DHT22;9636;47.382;8.480;2023-04-24T11:52:55;24.00;99.90
19007;DHT22;9636;47.382;8.480;2023-04-24T11:55:24;24.00;99.90
19007;DHT22;9636;47.382;8.480;2023-04-24T11:57:53;24.00;99.90
19007;DHT22;9636;47.382;8.480;2023-04-24T12:00:23;24.10;99.90
19007;DHT22;9636;47.382;8.480;2023-04-24T12:02:51;24.10;99.90
19007;DHT22;9636;47.382;8.480;2023-04-24T12:05:22;24.10;99.90
19007;DHT22;9636;47.382;8.480;2023-04-24T12:07:51;24.10;99.90
19007;DHT22;9636;47.382;8.480;2023-04-24T12:10:20;24.00;99.90
19007;DHT22;9636;47.382;8.480;2023-04-24T12:12:47;24.00;99.90
19007;DHT22;9636;47.382;8.480;2023-04-24T12:15:16;24.10;99.90
19007;DHT22;9636;47.382;8.480;2023-04-24T12:17:43;24.20;99.90
19007;DHT22;9636;47.382;8.480;2023-04-24T12:20:12;24.20;99.90
19007;DHT22;9636;47.382;8.480;2023-04-24T12:22:46;24.20;99.90
19007;DHT22;9636;47.382;8.480;2023-04-24T12:25:15;24.20;99.90
19007;DHT22;9636;47.382;8.480;2023-04-24T12:27:42;24.10;99.90
19007;DHT22;9636;47.382;8.480;2023-04-24T12:30:12;24.10;99.90
19007;DHT22;9636;47.382;8.480;2023-04-24T12:32:43;24.00;99.90
19007;DHT22;9636;47.382;8.480;2023-04-24T12:35:10;24.20;99.90
19007;DHT22;9636;47.382;8.480;2023-04-24T12:37:37;24.40;99.90
19007;DHT22;9636;47.382;8.480;2023-04-24T12:40:07;24.70;99.90
19007;DHT22;9636;47.382;8.480;2023-04-24T12:42:42;24.80;99.90
19007;DHT22;9636;47.382;8.480;2023-04-24T12:45:09;24.90;99.90
19007;DHT22;9636;47.382;8.480;2023-04-24T12:47:38;25.00;99.90
19007;DHT22;9636;47.382;8.480;2023-04-24T12:50:06;25.00;99.90
19007;DHT22;9636;47.382;8.480;2023-04-24T12:52:33;25.00;99.90
19007;DHT22;9636;47.382;8.480;2023-04-24T12:55:01;25.20;99.90
19007;DHT22;9636;47.382;8.480;2023-04-24T12:57:29;25.20;99.90
19007;DHT22;9636;47.382;8.480;2023-04-24T12:59:58;25.20;99.90
19007;DHT22;9636;47.382;8.480;2023-04-24T13:02:27;25.20;99.90
19007;DHT22;9636;47.382;8.480;2023-04-24T13:04:54;25.20;99.90
19007;DHT22;9636;47.382;8.480;2023-04-24T13:07:21;25.30;99.90
19007;DHT22;9636;47.382;8.480;2023-04-24T13:09:49;25.30;99.90
19007;DHT22;9636;47.382;8.480;2023-04-24T13:12:16;25.20;99.90
19007;DHT22;9636;47.382;8.480;2023-04-24T13:14:43;25.30;99.90
19007;DHT22;9636;47.382;8.480;2023-04-24T13:17:12;25.20;99.90
19007;DHT22;9636;47.382;8.480;2023-04-24T13:19:41;25.30;99.90
19007;DHT22;9636;47.382;8.480;2023-04-24T13:22:09;25.40;99.90
19007;DHT22;9636;47.382;8.480;2023-04-24T13:24:37;25.40;99.90
19007;DHT22;9636;47.382;8.480;2023-04-24T13:27:05;25.50;99.90
19007;DHT22;9636;47.382;8.480;2023-04-24T13:29:32;25.50;99.90
19007;DHT22;9636;47.382;8.480;2023-04-24T13:31:59;25.50;99.90
19007;DHT22;9636;47.382;8.480;2023-04-24T13:34:28;25.50;99.90
19007;DHT22;9636;47.382;8.480;2023-04-24T13:36:56;25.40;99.90
19007;DHT22;9636;47.382;8.480;2023-04-24T13:39:24;25.40;99.90
19007;DHT22;9636;47.382;8.480;2023-04-24T13:41:51;25.40;99.90
19007;DHT22;9636;47.382;8.480;2023-04-24T13:44:19;25.40;99.90
19007;DHT22;9636;47.382;8.480;2023-04-24T13:46:47;25.40;99.90
19007;DHT22;9636;47.382;8.480;2023-04-24T13:49:14;25.40;99.90
19007;DHT22;9636;47.382;8.480;2023-04-24T13:51:43;25.50;99.90
19007;DHT22;9636;47.382;8.480;2023-04-24T13:54:11;25.40;99.90
19007;DHT22;9636;47.382;8.480;2023-04-24T13:56:38;25.40;99.90
19007;DHT22;9636;47.382;8.480;2023-04-24T13:59:05;25.40;99.90
19007;DHT22;9636;47.382;8.480;2023-04-24T14:01:32;25.40;99.90
19007;DHT22;9636;47.382;8.480;2023-04-24T14:03:59;25.40;99.90
19007;DHT22;9636;47.382;8.480;2023-04-24T14:06:27;25.40;99.90
19007;DHT22;9636;47.382;8.480;2023-04-24T14:08:55;25.30;99.90
19007;DHT22;9636;47.382;8.480;2023-04-24T14:11:22;25.30;99.90
19007;DHT22;9636;47.382;8.480;2023-04-24T14:13:49;25.20;99.90
19007;DHT22;9636;47.382;8.480;2023-04-24T14:16:16;25.20;99.90
19007;DHT22;9636;47.382;8.480;2023-04-24T14:18:43;25.10;99.90
19007;DHT22;9636;47.382;8.480;2023-04-24T14:21:09;25.10;99.90
19007;DHT22;9636;47.382;8.480;2023-04-24T14:23:36;25.20;99.90
19007;DHT22;9636;47.382;8.480;2023-04-24T14:26:04;25.20;99.90
19007;DHT22;9636;47.382;8.480;2023-04-24T14:28:32;25.20;99.90
19007;DHT22;9636;47.382;8.480;2023-04-24T14:30:59;25.20;99.90
19007;DHT22;9636;47.382;8.480;2023-04-24T14:33:26;25.10;99.90
19007;DHT22;9636;47.382;8.480;2023-04-24T14:35:53;25.20;99.90
19007;DHT22;9636;47.382;8.480;2023-04-24T14:38:20;25.30;99.90
19007;DHT22;9636;47.382;8.480;2023-04-24T14:40:47;25.40;99.90
19007;DHT22;9636;47.382;8.480;2023-04-24T14:43:15;25.50;99.90
19007;DHT22;9636;47.382;8.480;2023-04-24T14:45:42;25.50;99.90
19007;DHT22;9636;47.382;8.480;2023-04-24T14:48:09;25.40;99.90
19007;DHT22;9636;47.382;8.480;2023-04-24T14:50:36;25.30;99.90
19007;DHT22;9636;47.382;8.480;2023-04-24T14:53:03;25.20;99.90
19007;DHT22;9636;47.382;8.480;2023-04-24T14:55:30;25.10;99.90
19007;DHT22;9636;47.382;8.480;2023-04-24T14:57:58;25.10;99.90
19007;DHT22;9636;47.382;8.480;2023-04-24T15:00:26;25.10;99.90
19007;DHT22;9636;47.382;8.480;2023-04-24T15:02:53;25.20;99.90
19007;DHT22;9636;47.382;8.480;2023-04-24T15:05:20;25.10;99.90
19007;DHT22;9636;47.382;8.480;2023-04-24T15:07:48;25.10;99.90
19007;DHT22;9636;47.382;8.480;2023-04-24T15:10:14;25.10;99.90
19007;DHT22;9636;47.382;8.480;2023-04-24T15:12:43;25.00;99.90
19007;DHT22;9636;47.382;8.480;2023-04-24T15:15:10;25.00;99.90
19007;DHT22;9636;47.382;8.480;2023-04-24T15:17:38;24.90;99.90
19007;DHT22;9636;47.382;8.480;2023-04-24T15:20:06;24.90;99.90
19007;DHT22;9636;47.382;8.480;2023-04-24T15:22:33;24.80;99.90
19007;DHT22;9636;47.382;8.480;2023-04-24T15:25:00;24.80;99.90
19007;DHT22;9636;47.382;8.480;2023-04-24T15:27:33;24.70;99.90
19007;DHT22;9636;47.382;8.480;2023-04-24T15:30:06;24.70;99.90
19007;DHT22;9636;47.382;8.480;2023-04-24T15:32:33;24.70;99.90
19007;DHT22;9636;47.382;8.480;2023-04-24T15:35:02;24.70;99.90
19007;DHT22;9636;47.382;8.480;2023-04-24T15:37:28;24.70;99.90
19007;DHT22;9636;47.382;8.480;2023-04-24T15:39:56;24.60;99.90
19007;DHT22;9636;47.382;8.480;2023-04-24T15:42:22;24.60;99.90
19007;DHT22;9636;47.382;8.480;2023-04-24T15:44:49;24.60;99.90
19007;DHT22;9636;47.382;8.480;2023-04-24T15:47:16;24.60;99.90
19007;DHT22;9636;47.382;8.480;2023-04-24T15:49:43;24.60;99.90